Home   Weather   Greece   Rethymno   Past weeks
Flag for Greece

Past Weather in Rethymno, Greece — Yesterday and Last 2 Weeks

Currently: 79 °F. Sunny. (Weather station: Souda Airport, Greece). See more current weather

Past Weather in Rethymno — Graph

°F

Rethymno Temperature Yesterday

Maximum temperature yesterday: 97 °F (at 2:20 pm)
Minimum temperature yesterday: 75 °F (at 3:50 am)
Average temperature yesterday: 86 °F

High & Low Weather Summary for the Past Weeks

 TemperatureHumidityPressure
High97 °F (Jun 24, 2:20 pm)94% (Jun 11, 5:50 am)30.07 "Hg (Jun 11, 5:50 am)
Low59 °F (Jun 16, 2:50 am)36% (Jun 23, 1:20 pm)29.83 "Hg (Jun 10, 6:20 am)
Average76 °F69%29.92 "Hg
* Reported Jun 10 6:20 am — Jun 25 6:50 am, Rethymno. Weather by CustomWeather, © 2021

Note: Actual official high and low records may vary slightly from our data, if they occured in-between our weather recording intervals... More about our weather records

Rethymno Weather History for the Previous 24 Hours

Scroll right to see more
 ConditionsComfort  
Time TempWeatherWind HumidityBarometerVisibility
6:50 am
Fri, Jun 25
77 °FSunny.No wind69%29.92 "Hg10 mi
6:20 am77 °FSunny.No wind74%29.92 "Hg10 mi
5:50 am77 °FClear.No wind74%29.92 "Hg10 mi
5:20 am75 °FClear.No wind78%29.92 "Hg10 mi
4:50 am75 °FClear.No wind78%29.92 "Hg10 mi
4:20 am75 °FClear.5 mph83%29.95 "Hg10 mi
3:50 am75 °FClear.5 mph83%29.95 "Hg10 mi
3:20 am75 °FClear.5 mph83%29.95 "Hg10 mi
2:50 am75 °FClear.5 mph83%29.95 "Hg10 mi
2:20 am77 °FClear.5 mph83%29.95 "Hg10 mi
1:50 am77 °FClear.5 mph83%29.95 "Hg10 mi
1:20 am79 °FClear.5 mph89%29.98 "Hg10 mi
12:50 am79 °FClear.7 mph89%29.98 "Hg10 mi
12:20 am79 °FClear.5 mph79%29.98 "Hg10 mi
11:50 pm
Thu, Jun 24
79 °FClear.5 mph79%29.98 "Hg10 mi
11:20 pm79 °FClear.5 mph84%29.98 "Hg10 mi
10:50 pm79 °FClear.5 mph84%29.98 "Hg10 mi
10:20 pm79 °FClear.5 mph89%29.98 "Hg10 mi
9:50 pm79 °FClear.7 mph89%29.98 "Hg10 mi
9:20 pm81 °FClear.No wind84%29.98 "Hg10 mi
8:50 pm81 °FClear.No wind84%29.98 "Hg10 mi
8:20 pm88 °FSunny.No wind62%29.98 "Hg10 mi
7:50 pm90 °FSunny.No wind59%29.98 "Hg10 mi
7:20 pm90 °FSunny.3 mph55%29.95 "Hg10 mi
6:50 pm90 °FSunny.3 mph55%29.95 "Hg10 mi
6:20 pm91 °FSunny.3 mph52%29.95 "Hg10 mi
5:50 pm91 °FSunny.5 mph56%29.95 "Hg10 mi
5:20 pm95 °FSunny.7 mph44%29.98 "Hg10 mi
4:50 pm95 °FSunny.7 mph44%29.98 "Hg10 mi
4:20 pm95 °FSunny.8 mph44%29.98 "Hg10 mi
3:50 pm95 °FSunny.8 mph44%29.98 "Hg10 mi
3:20 pm95 °FSunny.13 mph44%29.98 "Hg10 mi
2:50 pm95 °FSunny.13 mph44%29.98 "Hg10 mi
2:20 pm97 °FSunny.14 mph42%29.98 "Hg10 mi
1:50 pm95 °FSunny.12 mph44%29.98 "Hg10 mi
1:20 pm95 °FSunny.9 mph44%29.98 "Hg10 mi
12:50 pm95 °FSunny.9 mph50%29.98 "Hg10 mi
12:20 pm95 °FSunny.7 mph50%29.98 "Hg10 mi
11:50 am93 °FSunny.7 mph49%29.98 "Hg10 mi
11:20 am93 °FSunny.7 mph44%29.95 "Hg10 mi
10:50 am93 °FSunny.5 mph41%29.95 "Hg10 mi
10:20 am91 °FSunny.5 mph49%29.95 "Hg10 mi
9:50 am90 °FSunny.5 mph49%29.95 "Hg10 mi
9:20 am88 °FSunny.5 mph49%29.95 "Hg10 mi
8:50 am86 °FSunny.No wind55%29.95 "Hg10 mi
8:20 am82 °FSunny.No wind62%29.95 "Hg10 mi
7:50 am81 °FSunny.5 mph74%29.95 "Hg10 mi
7:20 am77 °FSunny.5 mph89%29.95 "Hg10 mi
Weather by CustomWeather, © 2021

See weather overview